Airfield :
LOGIN :

Register | Disclaimer

   EN    FR    IT 

 










Legend :    VFR   Marginal VFR   IFR   Intensive IFR   Very Intensive IFR
Visi :
Ceiling :
>= 8 km
>= 3000ft
5 to 8 km
1000 to 3000 ft
1500m to 5 km
500 to 1000 ft
800 to 1500m
200 to 500 ft
< 800m
< 200 ft
Symbols :   Thunderstorms  Fog  Heavy snow  Heavy precipitations  Wind > 20 kt
SIGMETs :     Misc.  Thunderstorms  Icing  Turbulence  Mountain Waves  Volcanic Ashes






- Airport Elevation : 197 ft
- IATA code : XOG


LFMO - Orange

CURRENT METAR :
  • 120300Z AUTO 00000KT CAVOK 19/17 Q1015 TEMPO 3000 BR OVC004

EXPIRED METARs :
  • 120230Z AUTO 08002KT CAVOK 19/16 Q1015 TEMPO 3000 BR OVC004
  • 120200Z AUTO 06003KT CAVOK 19/16 Q1015 TEMPO 3000 BR OVC004
  • 120130Z AUTO 00000KT CAVOK 20/17 Q1016 TEMPO 3000 BR OVC004
  • 120100Z AUTO 00000KT CAVOK 21/17 Q1016 TEMPO 3000 BR OVC004
  • 120030Z AUTO 07003KT CAVOK 21/17 Q1016 TEMPO 3000 BR OVC004

TAF TAF LFMO
Valid from the 12 at 03:00 until the 13 at 03:00 UTC


120200Z 1203/1303 VRB02KT CAVOK
TEMPO 1203/1206 3000 BR
PROB40
TEMPO 1203/1206 OVC004
BECMG 1210/1212 17012KT



MET'MAP, your aeronautical weather chart ! - Copyright ORBIFLY December 2007 - Disclaimer

ORBIFLY MET'MAP TEAM :

Programming & Development : Alexandra Zaïnal
Concept & original design : Baudouin d'Aumeries
Assistance for programming : Marc-Olivier Méhu
Technical & hardware support : Manuel Goepfert

Contact : metmap@orbifly.com




SOURCES & CREDITS :

   NOAA